sensor_id;sensor_type;location;lat;lon;timestamp;P1;durP1;ratioP1;P2;durP2;ratioP2
71626;SDS011;59475;52.464;13.590;2022-08-04T00:01:05;3.80;;;3.47;;
71626;SDS011;59475;52.464;13.590;2022-08-04T00:03:32;4.30;;;3.40;;
71626;SDS011;59475;52.464;13.590;2022-08-04T00:06:15;4.03;;;3.50;;
71626;SDS011;59475;52.464;13.590;2022-08-04T00:09:07;3.63;;;3.27;;
71626;SDS011;59475;52.464;13.590;2022-08-04T00:11:37;5.07;;;3.58;;
71626;SDS011;59475;52.464;13.590;2022-08-04T00:14:13;5.20;;;3.60;;
71626;SDS011;59475;52.464;13.590;2022-08-04T00:16:40;4.93;;;3.55;;
71626;SDS011;59475;52.464;13.590;2022-08-04T00:19:29;3.88;;;3.50;;
71626;SDS011;59475;52.464;13.590;2022-08-04T00:22:16;3.67;;;3.33;;
71626;SDS011;59475;52.464;13.590;2022-08-04T00:24:44;4.00;;;3.30;;
71626;SDS011;59475;52.464;13.590;2022-08-04T00:27:10;4.05;;;3.65;;
71626;SDS011;59475;52.464;13.590;2022-08-04T00:29:37;4.28;;;3.40;;
71626;SDS011;59475;52.464;13.590;2022-08-04T00:32:03;4.30;;;3.60;;
71626;SDS011;59475;52.464;13.590;2022-08-04T00:34:30;4.43;;;3.95;;
71626;SDS011;59475;52.464;13.590;2022-08-04T00:36:56;4.53;;;3.70;;
71626;SDS011;59475;52.464;13.590;2022-08-04T00:39:22;6.00;;;3.70;;
71626;SDS011;59475;52.464;13.590;2022-08-04T00:42:07;7.28;;;4.25;;
71626;SDS011;59475;52.464;13.590;2022-08-04T00:50:11;4.35;;;3.95;;
71626;SDS011;59475;52.464;13.590;2022-08-04T00:58:08;6.00;;;5.00;;
71626;SDS011;59475;52.464;13.590;2022-08-04T01:01:05;6.45;;;4.70;;
71626;SDS011;59475;52.464;13.590;2022-08-04T01:04:02;5.22;;;4.70;;
71626;SDS011;59475;52.464;13.590;2022-08-04T01:06:33;6.33;;;4.90;;
71626;SDS011;59475;52.464;13.590;2022-08-04T01:09:25;6.95;;;4.10;;
71626;SDS011;59475;52.464;13.590;2022-08-04T01:16:48;5.07;;;4.18;;
71626;SDS011;59475;52.464;13.590;2022-08-04T01:19:59;4.33;;;3.67;;
71626;SDS011;59475;52.464;13.590;2022-08-04T01:22:17;4.43;;;4.00;;
71626;SDS011;59475;52.464;13.590;2022-08-04T01:30:37;6.70;;;4.15;;
71626;SDS011;59475;52.464;13.590;2022-08-04T01:33:07;4.63;;;3.77;;
71626;SDS011;59475;52.464;13.590;2022-08-04T01:40:53;4.53;;;3.77;;
71626;SDS011;59475;52.464;13.590;2022-08-04T01:43:21;5.32;;;4.10;;
71626;SDS011;59475;52.464;13.590;2022-08-04T01:45:48;4.13;;;3.72;;
71626;SDS011;59475;52.464;13.590;2022-08-04T01:48:16;4.50;;;4.10;;
71626;SDS011;59475;52.464;13.590;2022-08-04T01:50:44;5.25;;;4.28;;
71626;SDS011;59475;52.464;13.590;2022-08-04T01:53:10;6.60;;;4.53;;
71626;SDS011;59475;52.464;13.590;2022-08-04T01:55:35;7.53;;;4.30;;
71626;SDS011;59475;52.464;13.590;2022-08-04T01:58:01;10.50;;;4.40;;
71626;SDS011;59475;52.464;13.590;2022-08-04T02:00:29;6.50;;;4.13;;
71626;SDS011;59475;52.464;13.590;2022-08-04T02:02:55;5.87;;;4.60;;
71626;SDS011;59475;52.464;13.590;2022-08-04T02:05:22;4.93;;;4.30;;
71626;SDS011;59475;52.464;13.590;2022-08-04T02:08:03;6.40;;;4.50;;
71626;SDS011;59475;52.464;13.590;2022-08-04T02:11:14;5.55;;;4.28;;
71626;SDS011;59475;52.464;13.590;2022-08-04T02:13:40;6.88;;;4.55;;
71626;SDS011;59475;52.464;13.590;2022-08-04T02:16:31;5.10;;;4.60;;
71626;SDS011;59475;52.464;13.590;2022-08-04T02:19:19;4.70;;;4.30;;
71626;SDS011;59475;52.464;13.590;2022-08-04T02:22:02;5.13;;;4.55;;
71626;SDS011;59475;52.464;13.590;2022-08-04T02:24:32;4.88;;;4.47;;
71626;SDS011;59475;52.464;13.590;2022-08-04T02:26:57;6.93;;;4.47;;
71626;SDS011;59475;52.464;13.590;2022-08-04T02:31:55;5.00;;;4.40;;
71626;SDS011;59475;52.464;13.590;2022-08-04T02:34:28;5.68;;;4.60;;
71626;SDS011;59475;52.464;13.590;2022-08-04T02:36:59;5.18;;;4.65;;
71626;SDS011;59475;52.464;13.590;2022-08-04T02:39:26;5.20;;;4.70;;
71626;SDS011;59475;52.464;13.590;2022-08-04T02:41:57;4.93;;;4.40;;
71626;SDS011;59475;52.464;13.590;2022-08-04T02:44:23;5.95;;;4.80;;
71626;SDS011;59475;52.464;13.590;2022-08-04T02:46:52;5.95;;;5.07;;
71626;SDS011;59475;52.464;13.590;2022-08-04T02:49:19;7.80;;;4.68;;
71626;SDS011;59475;52.464;13.590;2022-08-04T02:51:46;6.60;;;5.00;;
71626;SDS011;59475;52.464;13.590;2022-08-04T02:54:18;5.40;;;4.70;;
71626;SDS011;59475;52.464;13.590;2022-08-04T02:56:58;5.30;;;4.80;;
71626;SDS011;59475;52.464;13.590;2022-08-04T02:59:26;6.20;;;4.93;;
71626;SDS011;59475;52.464;13.590;2022-08-04T03:01:54;5.68;;;4.78;;
71626;SDS011;59475;52.464;13.590;2022-08-04T03:10:02;5.38;;;4.88;;
71626;SDS011;59475;52.464;13.590;2022-08-04T03:13:03;8.23;;;4.75;;
71626;SDS011;59475;52.464;13.590;2022-08-04T03:15:58;5.45;;;4.93;;
71626;SDS011;59475;52.464;13.590;2022-08-04T03:21:21;6.87;;;4.83;;
71626;SDS011;59475;52.464;13.590;2022-08-04T03:24:24;5.30;;;4.80;;
71626;SDS011;59475;52.464;13.590;2022-08-04T04:00:30;7.45;;;5.43;;
71626;SDS011;59475;52.464;13.590;2022-08-04T04:03:27;6.00;;;5.40;;
71626;SDS011;59475;52.464;13.590;2022-08-04T04:17:32;8.93;;;5.50;;
71626;SDS011;59475;52.464;13.590;2022-08-04T04:23:01;6.50;;;5.72;;
71626;SDS011;59475;52.464;13.590;2022-08-04T04:31:04;6.20;;;5.47;;
71626;SDS011;59475;52.464;13.590;2022-08-04T04:33:37;7.47;;;5.35;;
71626;SDS011;59475;52.464;13.590;2022-08-04T04:50:44;6.32;;;5.60;;
71626;SDS011;59475;52.464;13.590;2022-08-04T04:56:27;8.23;;;6.10;;
71626;SDS011;59475;52.464;13.590;2022-08-04T04:59:01;6.73;;;5.97;;
71626;SDS011;59475;52.464;13.590;2022-08-04T05:09:26;9.13;;;5.85;;
71626;SDS011;59475;52.464;13.590;2022-08-04T05:12:09;6.57;;;5.87;;
71626;SDS011;59475;52.464;13.590;2022-08-04T05:14:45;7.60;;;6.75;;
71626;SDS011;59475;52.464;13.590;2022-08-04T05:17:24;7.65;;;6.75;;
71626;SDS011;59475;52.464;13.590;2022-08-04T05:22:29;8.93;;;7.65;;
71626;SDS011;59475;52.464;13.590;2022-08-04T05:25:16;8.00;;;7.20;;
71626;SDS011;59475;52.464;13.590;2022-08-04T05:27:49;8.07;;;7.28;;
71626;SDS011;59475;52.464;13.590;2022-08-04T05:30:18;10.07;;;7.90;;
71626;SDS011;59475;52.464;13.590;2022-08-04T05:32:45;8.18;;;7.47;;
71626;SDS011;59475;52.464;13.590;2022-08-04T05:35:15;9.80;;;7.43;;
71626;SDS011;59475;52.464;13.590;2022-08-04T05:37:46;8.50;;;7.80;;
71626;SDS011;59475;52.464;13.590;2022-08-04T05:40:15;9.63;;;7.70;;
71626;SDS011;59475;52.464;13.590;2022-08-04T05:42:43;12.02;;;7.13;;
71626;SDS011;59475;52.464;13.590;2022-08-04T05:45:08;8.73;;;7.00;;
71626;SDS011;59475;52.464;13.590;2022-08-04T05:47:34;7.85;;;7.05;;
71626;SDS011;59475;52.464;13.590;2022-08-04T05:50:02;7.93;;;7.13;;
71626;SDS011;59475;52.464;13.590;2022-08-04T05:52:29;7.68;;;6.88;;
71626;SDS011;59475;52.464;13.590;2022-08-04T05:54:56;7.88;;;7.10;;
71626;SDS011;59475;52.464;13.590;2022-08-04T05:57:23;7.88;;;6.90;;
71626;SDS011;59475;52.464;13.590;2022-08-04T05:59:49;8.00;;;7.18;;
71626;SDS011;59475;52.464;13.590;2022-08-04T06:02:16;7.43;;;6.70;;
71626;SDS011;59475;52.464;13.590;2022-08-04T06:04:44;10.25;;;6.90;;
71626;SDS011;59475;52.464;13.590;2022-08-04T06:07:13;9.95;;;7.15;;
71626;SDS011;59475;52.464;13.590;2022-08-04T06:09:39;8.20;;;7.13;;
71626;SDS011;59475;52.464;13.590;2022-08-04T06:12:10;10.60;;;6.85;;
71626;SDS011;59475;52.464;13.590;2022-08-04T06:14:40;6.80;;;6.20;;
71626;SDS011;59475;52.464;13.590;2022-08-04T06:17:08;9.25;;;6.63;;
71626;SDS011;59475;52.464;13.590;2022-08-04T06:19:38;7.15;;;6.45;;
71626;SDS011;59475;52.464;13.590;2022-08-04T06:22:04;7.18;;;6.43;;
71626;SDS011;59475;52.464;13.590;2022-08-04T06:24:32;7.30;;;6.40;;
71626;SDS011;59475;52.464;13.590;2022-08-04T06:27:00;7.37;;;6.00;;
71626;SDS011;59475;52.464;13.590;2022-08-04T06:29:28;5.95;;;5.35;;
71626;SDS011;59475;52.464;13.590;2022-08-04T06:32:00;7.72;;;6.57;;
71626;SDS011;59475;52.464;13.590;2022-08-04T06:34:37;6.28;;;5.65;;
71626;SDS011;59475;52.464;13.590;2022-08-04T06:37:04;5.82;;;5.22;;
71626;SDS011;59475;52.464;13.590;2022-08-04T06:39:31;6.73;;;5.90;;
71626;SDS011;59475;52.464;13.590;2022-08-04T06:41:57;6.07;;;5.47;;
71626;SDS011;59475;52.464;13.590;2022-08-04T06:44:23;6.93;;;5.28;;
71626;SDS011;59475;52.464;13.590;2022-08-04T06:46:50;7.50;;;5.80;;
71626;SDS011;59475;52.464;13.590;2022-08-04T06:49:17;7.13;;;5.53;;
71626;SDS011;59475;52.464;13.590;2022-08-04T06:51:43;5.37;;;4.87;;
71626;SDS011;59475;52.464;13.590;2022-08-04T06:54:09;5.45;;;4.90;;
71626;SDS011;59475;52.464;13.590;2022-08-04T06:56:35;5.55;;;5.05;;
71626;SDS011;59475;52.464;13.590;2022-08-04T06:59:03;7.90;;;4.73;;
71626;SDS011;59475;52.464;13.590;2022-08-04T07:01:29;6.55;;;5.30;;
71626;SDS011;59475;52.464;13.590;2022-08-04T07:03:56;8.02;;;5.10;;
71626;SDS011;59475;52.464;13.590;2022-08-04T07:06:22;8.20;;;4.43;;
71626;SDS011;59475;52.464;13.590;2022-08-04T07:08:49;5.70;;;4.55;;
71626;SDS011;59475;52.464;13.590;2022-08-04T07:11:16;8.33;;;4.80;;
71626;SDS011;59475;52.464;13.590;2022-08-04T07:13:42;6.20;;;4.95;;
71626;SDS011;59475;52.464;13.590;2022-08-04T07:16:08;6.45;;;4.25;;
71626;SDS011;59475;52.464;13.590;2022-08-04T07:18:40;11.02;;;4.47;;
71626;SDS011;59475;52.464;13.590;2022-08-04T07:21:05;5.77;;;4.03;;
71626;SDS011;59475;52.464;13.590;2022-08-04T07:23:31;5.00;;;4.50;;
71626;SDS011;59475;52.464;13.590;2022-08-04T07:25:57;5.70;;;4.43;;
71626;SDS011;59475;52.464;13.590;2022-08-04T07:28:23;5.07;;;4.33;;
71626;SDS011;59475;52.464;13.590;2022-08-04T07:30:53;3.90;;;3.60;;
71626;SDS011;59475;52.464;13.590;2022-08-04T07:33:19;5.28;;;4.78;;
71626;SDS011;59475;52.464;13.590;2022-08-04T07:35:46;5.93;;;4.07;;
71626;SDS011;59475;52.464;13.590;2022-08-04T07:38:14;5.30;;;4.30;;
71626;SDS011;59475;52.464;13.590;2022-08-04T07:40:40;7.57;;;4.40;;
71626;SDS011;59475;52.464;13.590;2022-08-04T07:43:05;6.80;;;4.40;;
71626;SDS011;59475;52.464;13.590;2022-08-04T07:45:31;4.38;;;4.00;;
71626;SDS011;59475;52.464;13.590;2022-08-04T07:47:57;5.18;;;3.95;;
71626;SDS011;59475;52.464;13.590;2022-08-04T07:50:24;5.53;;;3.43;;
71626;SDS011;59475;52.464;13.590;2022-08-04T07:52:50;5.82;;;3.63;;
71626;SDS011;59475;52.464;13.590;2022-08-04T07:55:16;4.38;;;3.67;;
71626;SDS011;59475;52.464;13.590;2022-08-04T07:57:42;3.70;;;3.40;;
71626;SDS011;59475;52.464;13.590;2022-08-04T08:00:08;5.57;;;3.43;;
71626;SDS011;59475;52.464;13.590;2022-08-04T08:02:35;5.50;;;4.10;;
71626;SDS011;59475;52.464;13.590;2022-08-04T08:05:02;5.13;;;3.15;;
71626;SDS011;59475;52.464;13.590;2022-08-04T08:07:28;8.30;;;3.63;;
71626;SDS011;59475;52.464;13.590;2022-08-04T08:09:54;3.75;;;3.30;;
71626;SDS011;59475;52.464;13.590;2022-08-04T08:12:19;3.90;;;3.23;;
71626;SDS011;59475;52.464;13.590;2022-08-04T08:14:45;5.20;;;3.00;;
71626;SDS011;59475;52.464;13.590;2022-08-04T08:17:10;3.77;;;3.33;;
71626;SDS011;59475;52.464;13.590;2022-08-04T08:19:36;3.30;;;3.00;;
71626;SDS011;59475;52.464;13.590;2022-08-04T08:22:02;4.75;;;3.55;;
71626;SDS011;59475;52.464;13.590;2022-08-04T08:24:28;5.07;;;3.53;;
71626;SDS011;59475;52.464;13.590;2022-08-04T08:26:54;5.15;;;3.45;;
71626;SDS011;59475;52.464;13.590;2022-08-04T08:29:20;4.35;;;3.53;;
71626;SDS011;59475;52.464;13.590;2022-08-04T08:31:47;3.67;;;3.30;;
71626;SDS011;59475;52.464;13.590;2022-08-04T08:34:12;3.30;;;3.00;;
71626;SDS011;59475;52.464;13.590;2022-08-04T08:36:43;6.03;;;3.08;;
71626;SDS011;59475;52.464;13.590;2022-08-04T08:39:33;5.75;;;3.10;;
71626;SDS011;59475;52.464;13.590;2022-08-04T09:01:29;2.90;;;2.60;;
71626;SDS011;59475;52.464;13.590;2022-08-04T09:07:06;4.68;;;2.67;;
71626;SDS011;59475;52.464;13.590;2022-08-04T09:10:13;3.28;;;2.63;;
71626;SDS011;59475;52.464;13.590;2022-08-04T09:13:02;2.60;;;2.40;;
71626;SDS011;59475;52.464;13.590;2022-08-04T09:18:05;6.22;;;2.72;;
71626;SDS011;59475;52.464;13.590;2022-08-04T09:20:38;2.42;;;2.17;;
71626;SDS011;59475;52.464;13.590;2022-08-04T09:31:32;5.32;;;2.10;;
71626;SDS011;59475;52.464;13.590;2022-08-04T09:40:05;4.43;;;2.70;;
71626;SDS011;59475;52.464;13.590;2022-08-04T09:46:01;5.53;;;2.50;;
71626;SDS011;59475;52.464;13.590;2022-08-04T10:00:05;3.75;;;2.40;;
71626;SDS011;59475;52.464;13.590;2022-08-04T10:02:35;2.33;;;2.13;;
71626;SDS011;59475;52.464;13.590;2022-08-04T10:05:03;2.50;;;2.30;;
71626;SDS011;59475;52.464;13.590;2022-08-04T10:10:30;4.82;;;2.10;;
71626;SDS011;59475;52.464;13.590;2022-08-04T10:13:18;2.25;;;1.98;;
71626;SDS011;59475;52.464;13.590;2022-08-04T10:21:10;8.33;;;2.00;;
71626;SDS011;59475;52.464;13.590;2022-08-04T10:23:51;3.25;;;2.33;;
71626;SDS011;59475;52.464;13.590;2022-08-04T10:32:15;2.53;;;2.30;;
71626;SDS011;59475;52.464;13.590;2022-08-04T10:34:54;3.67;;;2.10;;
71626;SDS011;59475;52.464;13.590;2022-08-04T10:37:41;2.92;;;2.22;;
71626;SDS011;59475;52.464;13.590;2022-08-04T10:40:19;3.67;;;2.25;;
71626;SDS011;59475;52.464;13.590;2022-08-04T10:45:49;3.05;;;1.98;;
71626;SDS011;59475;52.464;13.590;2022-08-04T10:48:21;2.63;;;1.77;;
71626;SDS011;59475;52.464;13.590;2022-08-04T10:51:10;3.03;;;2.20;;
71626;SDS011;59475;52.464;13.590;2022-08-04T10:54:01;3.08;;;1.98;;
71626;SDS011;59475;52.464;13.590;2022-08-04T10:56:41;5.07;;;3.00;;
71626;SDS011;59475;52.464;13.590;2022-08-04T10:59:17;4.50;;;2.30;;
71626;SDS011;59475;52.464;13.590;2022-08-04T11:01:49;3.33;;;2.10;;
71626;SDS011;59475;52.464;13.590;2022-08-04T11:04:28;4.03;;;2.10;;
71626;SDS011;59475;52.464;13.590;2022-08-04T11:06:58;3.28;;;2.08;;
71626;SDS011;59475;52.464;13.590;2022-08-04T11:09:24;2.20;;;1.70;;
71626;SDS011;59475;52.464;13.590;2022-08-04T11:11:55;2.42;;;1.90;;
71626;SDS011;59475;52.464;13.590;2022-08-04T11:14:48;4.97;;;1.87;;
71626;SDS011;59475;52.464;13.590;2022-08-04T11:17:21;2.95;;;1.85;;
71626;SDS011;59475;52.464;13.590;2022-08-04T11:20:28;4.90;;;2.13;;
71626;SDS011;59475;52.464;13.590;2022-08-04T11:23:10;4.10;;;1.80;;
71626;SDS011;59475;52.464;13.590;2022-08-04T11:31:06;5.25;;;2.20;;
71626;SDS011;59475;52.464;13.590;2022-08-04T11:38:58;2.65;;;2.00;;
71626;SDS011;59475;52.464;13.590;2022-08-04T11:42:25;3.83;;;1.80;;
71626;SDS011;59475;52.464;13.590;2022-08-04T11:44:42;4.47;;;1.80;;
71626;SDS011;59475;52.464;13.590;2022-08-04T11:47:28;2.10;;;1.52;;
71626;SDS011;59475;52.464;13.590;2022-08-04T11:50:03;2.75;;;1.73;;
71626;SDS011;59475;52.464;13.590;2022-08-04T11:52:32;2.95;;;1.83;;
71626;SDS011;59475;52.464;13.590;2022-08-04T11:55:02;3.60;;;1.57;;
71626;SDS011;59475;52.464;13.590;2022-08-04T11:57:31;2.58;;;1.60;;
71626;SDS011;59475;52.464;13.590;2022-08-04T11:59:57;2.58;;;1.55;;
71626;SDS011;59475;52.464;13.590;2022-08-04T12:02:49;2.67;;;1.93;;
71626;SDS011;59475;52.464;13.590;2022-08-04T12:05:30;3.58;;;2.03;;
71626;SDS011;59475;52.464;13.590;2022-08-04T12:18:46;3.13;;;2.20;;
71626;SDS011;59475;52.464;13.590;2022-08-04T12:21:25;3.67;;;2.15;;
71626;SDS011;59475;52.464;13.590;2022-08-04T12:23:56;2.78;;;1.70;;
71626;SDS011;59475;52.464;13.590;2022-08-04T12:26:27;2.65;;;2.20;;
71626;SDS011;59475;52.464;13.590;2022-08-04T12:28:59;2.23;;;1.60;;
71626;SDS011;59475;52.464;13.590;2022-08-04T12:31:37;2.38;;;1.80;;
71626;SDS011;59475;52.464;13.590;2022-08-04T12:37:27;3.33;;;1.70;;
71626;SDS011;59475;52.464;13.590;2022-08-04T12:40:05;5.47;;;2.10;;
71626;SDS011;59475;52.464;13.590;2022-08-04T12:45:22;4.63;;;2.08;;
71626;SDS011;59475;52.464;13.590;2022-08-04T12:47:48;3.72;;;2.03;;
71626;SDS011;59475;52.464;13.590;2022-08-04T12:50:16;2.35;;;1.50;;
71626;SDS011;59475;52.464;13.590;2022-08-04T12:52:47;3.47;;;1.97;;
71626;SDS011;59475;52.464;13.590;2022-08-04T12:55:17;2.10;;;1.75;;
71626;SDS011;59475;52.464;13.590;2022-08-04T12:57:45;3.28;;;2.15;;
71626;SDS011;59475;52.464;13.590;2022-08-04T13:00:21;2.97;;;1.88;;
71626;SDS011;59475;52.464;13.590;2022-08-04T13:02:52;2.33;;;2.00;;
71626;SDS011;59475;52.464;13.590;2022-08-04T13:05:19;2.00;;;1.80;;
71626;SDS011;59475;52.464;13.590;2022-08-04T13:07:46;2.58;;;2.10;;
71626;SDS011;59475;52.464;13.590;2022-08-04T13:10:15;4.68;;;2.28;;
71626;SDS011;59475;52.464;13.590;2022-08-04T13:12:55;3.15;;;2.08;;
71626;SDS011;59475;52.464;13.590;2022-08-04T13:15:23;5.32;;;1.88;;
71626;SDS011;59475;52.464;13.590;2022-08-04T13:20:26;3.80;;;2.00;;
71626;SDS011;59475;52.464;13.590;2022-08-04T13:23:14;2.40;;;2.20;;
71626;SDS011;59475;52.464;13.590;2022-08-04T13:25:41;2.70;;;2.17;;
71626;SDS011;59475;52.464;13.590;2022-08-04T13:28:21;2.83;;;2.10;;
71626;SDS011;59475;52.464;13.590;2022-08-04T13:31:04;3.30;;;1.70;;
71626;SDS011;59475;52.464;13.590;2022-08-04T13:33:32;4.10;;;1.88;;
71626;SDS011;59475;52.464;13.590;2022-08-04T13:36:00;4.40;;;2.05;;
71626;SDS011;59475;52.464;13.590;2022-08-04T13:38:26;2.65;;;1.67;;
71626;SDS011;59475;52.464;13.590;2022-08-04T13:40:56;3.95;;;1.90;;
71626;SDS011;59475;52.464;13.590;2022-08-04T13:43:28;2.20;;;1.73;;
71626;SDS011;59475;52.464;13.590;2022-08-04T13:45:59;2.20;;;1.75;;
71626;SDS011;59475;52.464;13.590;2022-08-04T13:48:34;3.90;;;1.70;;
71626;SDS011;59475;52.464;13.590;2022-08-04T13:51:05;2.83;;;2.10;;
71626;SDS011;59475;52.464;13.590;2022-08-04T13:53:34;3.85;;;2.00;;
71626;SDS011;59475;52.464;13.590;2022-08-04T13:56:04;2.03;;;1.47;;
71626;SDS011;59475;52.464;13.590;2022-08-04T13:58:33;2.38;;;1.70;;
71626;SDS011;59475;52.464;13.590;2022-08-04T14:08:53;1.67;;;1.43;;
71626;SDS011;59475;52.464;13.590;2022-08-04T14:11:29;2.08;;;1.63;;
71626;SDS011;59475;52.464;13.590;2022-08-04T14:13:57;2.63;;;1.48;;
71626;SDS011;59475;52.464;13.590;2022-08-04T14:16:22;2.00;;;1.30;;
71626;SDS011;59475;52.464;13.590;2022-08-04T14:18:56;2.63;;;1.55;;
71626;SDS011;59475;52.464;13.590;2022-08-04T14:21:23;3.88;;;1.45;;
71626;SDS011;59475;52.464;13.590;2022-08-04T14:23:50;3.73;;;1.70;;
71626;SDS011;59475;52.464;13.590;2022-08-04T14:28:45;2.40;;;1.20;;
71626;SDS011;59475;52.464;13.590;2022-08-04T14:31:13;3.88;;;1.40;;
71626;SDS011;59475;52.464;13.590;2022-08-04T14:33:40;2.10;;;1.73;;
71626;SDS011;59475;52.464;13.590;2022-08-04T14:36:08;2.05;;;1.23;;
71626;SDS011;59475;52.464;13.590;2022-08-04T14:38:53;2.03;;;1.55;;
71626;SDS011;59475;52.464;13.590;2022-08-04T14:41:21;3.97;;;1.40;;
71626;SDS011;59475;52.464;13.590;2022-08-04T14:43:53;2.72;;;1.42;;
71626;SDS011;59475;52.464;13.590;2022-08-04T14:46:21;1.88;;;1.48;;
71626;SDS011;59475;52.464;13.590;2022-08-04T14:51:43;3.15;;;1.20;;
71626;SDS011;59475;52.464;13.590;2022-08-04T14:54:11;2.53;;;1.40;;
71626;SDS011;59475;52.464;13.590;2022-08-04T14:56:38;1.50;;;1.30;;
71626;SDS011;59475;52.464;13.590;2022-08-04T14:59:09;2.85;;;1.42;;
71626;SDS011;59475;52.464;13.590;2022-08-04T15:01:36;2.47;;;1.42;;
71626;SDS011;59475;52.464;13.590;2022-08-04T15:04:04;1.75;;;1.40;;
71626;SDS011;59475;52.464;13.590;2022-08-04T15:06:30;2.53;;;1.40;;
71626;SDS011;59475;52.464;13.590;2022-08-04T15:08:58;1.90;;;1.33;;
71626;SDS011;59475;52.464;13.590;2022-08-04T15:11:26;2.30;;;1.50;;
71626;SDS011;59475;52.464;13.590;2022-08-04T15:13:53;1.80;;;1.35;;
71626;SDS011;59475;52.464;13.590;2022-08-04T15:16:20;2.97;;;1.70;;
71626;SDS011;59475;52.464;13.590;2022-08-04T15:18:47;2.80;;;1.53;;
71626;SDS011;59475;52.464;13.590;2022-08-04T15:21:12;2.85;;;1.70;;
71626;SDS011;59475;52.464;13.590;2022-08-04T15:23:39;2.25;;;1.42;;
71626;SDS011;59475;52.464;13.590;2022-08-04T15:26:05;2.17;;;1.47;;
71626;SDS011;59475;52.464;13.590;2022-08-04T15:28:34;1.75;;;1.40;;
71626;SDS011;59475;52.464;13.590;2022-08-04T15:31:02;1.80;;;1.55;;
71626;SDS011;59475;52.464;13.590;2022-08-04T15:33:29;1.80;;;1.43;;
71626;SDS011;59475;52.464;13.590;2022-08-04T15:36:08;2.85;;;1.67;;
71626;SDS011;59475;52.464;13.590;2022-08-04T15:38:38;2.03;;;1.50;;
71626;SDS011;59475;52.464;13.590;2022-08-04T15:41:13;3.28;;;1.42;;
71626;SDS011;59475;52.464;13.590;2022-08-04T15:43:54;4.18;;;1.70;;
71626;SDS011;59475;52.464;13.590;2022-08-04T15:47:05;5.97;;;1.60;;
71626;SDS011;59475;52.464;13.590;2022-08-04T15:49:36;1.92;;;1.30;;
71626;SDS011;59475;52.464;13.590;2022-08-04T15:52:04;3.75;;;1.40;;
71626;SDS011;59475;52.464;13.590;2022-08-04T15:54:32;1.80;;;1.48;;
71626;SDS011;59475;52.464;13.590;2022-08-04T15:57:00;1.90;;;1.45;;
71626;SDS011;59475;52.464;13.590;2022-08-04T16:02:27;2.38;;;1.70;;
71626;SDS011;59475;52.464;13.590;2022-08-04T16:07:55;2.55;;;1.50;;
71626;SDS011;59475;52.464;13.590;2022-08-04T16:15:55;4.03;;;1.52;;
71626;SDS011;59475;52.464;13.590;2022-08-04T16:20:55;4.20;;;1.67;;
71626;SDS011;59475;52.464;13.590;2022-08-04T16:26:10;1.73;;;1.55;;
71626;SDS011;59475;52.464;13.590;2022-08-04T16:28:40;1.83;;;1.30;;
71626;SDS011;59475;52.464;13.590;2022-08-04T16:31:07;3.20;;;1.20;;
71626;SDS011;59475;52.464;13.590;2022-08-04T16:33:34;2.35;;;1.33;;
71626;SDS011;59475;52.464;13.590;2022-08-04T16:36:00;1.33;;;1.05;;
71626;SDS011;59475;52.464;13.590;2022-08-04T16:38:26;1.60;;;1.07;;
71626;SDS011;59475;52.464;13.590;2022-08-04T16:40:52;1.65;;;1.45;;
71626;SDS011;59475;52.464;13.590;2022-08-04T16:43:19;2.97;;;1.20;;
71626;SDS011;59475;52.464;13.590;2022-08-04T16:46:03;3.73;;;1.40;;
71626;SDS011;59475;52.464;13.590;2022-08-04T16:48:29;1.90;;;1.60;;
71626;SDS011;59475;52.464;13.590;2022-08-04T16:50:57;2.13;;;1.45;;
71626;SDS011;59475;52.464;13.590;2022-08-04T16:53:25;1.67;;;1.10;;
71626;SDS011;59475;52.464;13.590;2022-08-04T16:55:53;1.48;;;1.02;;
71626;SDS011;59475;52.464;13.590;2022-08-04T16:58:24;2.43;;;1.37;;
71626;SDS011;59475;52.464;13.590;2022-08-04T17:01:09;2.78;;;1.40;;
71626;SDS011;59475;52.464;13.590;2022-08-04T17:03:36;3.72;;;1.48;;
71626;SDS011;59475;52.464;13.590;2022-08-04T17:08:36;2.63;;;1.40;;
71626;SDS011;59475;52.464;13.590;2022-08-04T17:11:02;2.67;;;1.30;;
71626;SDS011;59475;52.464;13.590;2022-08-04T17:13:30;2.83;;;1.40;;
71626;SDS011;59475;52.464;13.590;2022-08-04T17:16:01;2.42;;;1.40;;
71626;SDS011;59475;52.464;13.590;2022-08-04T17:18:29;2.55;;;1.40;;
71626;SDS011;59475;52.464;13.590;2022-08-04T17:21:07;2.75;;;1.40;;
71626;SDS011;59475;52.464;13.590;2022-08-04T17:23:36;2.67;;;1.30;;
71626;SDS011;59475;52.464;13.590;2022-08-04T17:26:05;2.00;;;1.45;;
71626;SDS011;59475;52.464;13.590;2022-08-04T17:28:37;2.80;;;1.63;;
71626;SDS011;59475;52.464;13.590;2022-08-04T17:31:05;2.53;;;1.40;;
71626;SDS011;59475;52.464;13.590;2022-08-04T17:33:34;2.65;;;1.40;;
71626;SDS011;59475;52.464;13.590;2022-08-04T17:36:00;4.50;;;1.50;;
71626;SDS011;59475;52.464;13.590;2022-08-04T17:38:34;2.17;;;1.60;;
71626;SDS011;59475;52.464;13.590;2022-08-04T17:41:04;2.00;;;1.33;;
71626;SDS011;59475;52.464;13.590;2022-08-04T17:43:44;2.53;;;1.50;;
71626;SDS011;59475;52.464;13.590;2022-08-04T17:46:15;2.40;;;1.60;;
71626;SDS011;59475;52.464;13.590;2022-08-04T17:48:54;2.67;;;1.60;;
71626;SDS011;59475;52.464;13.590;2022-08-04T17:53:59;3.97;;;1.60;;
71626;SDS011;59475;52.464;13.590;2022-08-04T17:56:26;2.42;;;1.60;;
71626;SDS011;59475;52.464;13.590;2022-08-04T17:59:09;6.05;;;1.45;;
71626;SDS011;59475;52.464;13.590;2022-08-04T18:06:53;2.42;;;1.52;;
71626;SDS011;59475;52.464;13.590;2022-08-04T18:09:23;6.95;;;1.40;;
71626;SDS011;59475;52.464;13.590;2022-08-04T18:12:03;4.28;;;1.50;;
71626;SDS011;59475;52.464;13.590;2022-08-04T18:14:52;3.13;;;1.80;;
71626;SDS011;59475;52.464;13.590;2022-08-04T18:17:38;3.22;;;1.58;;
71626;SDS011;59475;52.464;13.590;2022-08-04T18:20:08;4.68;;;1.50;;
71626;SDS011;59475;52.464;13.590;2022-08-04T18:22:36;1.83;;;1.50;;
71626;SDS011;59475;52.464;13.590;2022-08-04T18:25:02;2.30;;;1.53;;
71626;SDS011;59475;52.464;13.590;2022-08-04T18:27:29;1.80;;;1.40;;
71626;SDS011;59475;52.464;13.590;2022-08-04T18:29:55;2.88;;;1.80;;
71626;SDS011;59475;52.464;13.590;2022-08-04T18:32:21;2.83;;;1.83;;
71626;SDS011;59475;52.464;13.590;2022-08-04T18:34:48;3.17;;;2.20;;
71626;SDS011;59475;52.464;13.590;2022-08-04T18:37:14;2.30;;;2.00;;
71626;SDS011;59475;52.464;13.590;2022-08-04T18:39:40;3.37;;;2.00;;
71626;SDS011;59475;52.464;13.590;2022-08-04T18:42:05;4.40;;;2.60;;
71626;SDS011;59475;52.464;13.590;2022-08-04T18:44:31;3.17;;;2.20;;
71626;SDS011;59475;52.464;13.590;2022-08-04T18:46:57;3.67;;;2.38;;
71626;SDS011;59475;52.464;13.590;2022-08-04T18:49:23;3.85;;;2.22;;
71626;SDS011;59475;52.464;13.590;2022-08-04T18:51:52;5.90;;;2.60;;
71626;SDS011;59475;52.464;13.590;2022-08-04T18:54:19;5.00;;;2.65;;
71626;SDS011;59475;52.464;13.590;2022-08-04T18:56:45;3.40;;;2.30;;
71626;SDS011;59475;52.464;13.590;2022-08-04T18:59:11;4.10;;;2.13;;
71626;SDS011;59475;52.464;13.590;2022-08-04T19:01:37;3.67;;;2.23;;
71626;SDS011;59475;52.464;13.590;2022-08-04T19:04:03;5.35;;;2.30;;
71626;SDS011;59475;52.464;13.590;2022-08-04T19:06:28;4.23;;;2.20;;
71626;SDS011;59475;52.464;13.590;2022-08-04T19:08:54;4.95;;;2.17;;
71626;SDS011;59475;52.464;13.590;2022-08-04T19:11:20;3.70;;;2.30;;
71626;SDS011;59475;52.464;13.590;2022-08-04T19:13:45;7.13;;;2.50;;
71626;SDS011;59475;52.464;13.590;2022-08-04T19:16:11;6.13;;;2.47;;
71626;SDS011;59475;52.464;13.590;2022-08-04T19:18:36;6.60;;;2.60;;
71626;SDS011;59475;52.464;13.590;2022-08-04T19:21:01;7.20;;;2.50;;